Time;durP1;ratioP1;P1;durP2;ratioP2;P2;SDS_P1;SDS_P2;PMS_P1;PMS_P2;Temp;Humidity;BMP_temperature;BMP_pressure;BME280_temperature;BME280_humidity;BME280_pressure;Samples;Min_cycle;Max_cycle;Signal;HPM_P1;HPM_P2
2023/04/01 08:51:50;;;;;;;;;;;;;;;10.96;61.18;96654.78;5380635;23;20358;-62
2023/04/01 08:54:18;;;;;;;;;;;;;;;11.10;60.82;96648.22;4972339;28;19928;-62
2023/04/01 08:56:48;;;;;;;;;;;;;;;11.11;61.51;96661.22;4969843;28;19926;-62
2023/04/01 08:59:13;;;;;;;;;;;;;;;11.15;59.89;96654.72;4971173;28;19918;-62
2023/04/01 09:01:57;;;;;;;;;;;;;;;11.16;59.83;96651.09;4969957;28;19930;-63
2023/04/01 09:04:25;;;;;;;;;;;;;;;11.20;60.52;96654.25;4967812;28;19925;-62
2023/04/01 09:06:54;;;;;;;;;;;;;;;11.18;59.37;96656.19;4970254;28;19926;-62
2023/04/01 09:09:19;;;;;;;;;;;;;;;11.10;60.85;96659.53;4967767;28;19918;-61
2023/04/01 09:11:47;;;;;;;;;;;;;;;11.11;61.12;96658.59;4973310;28;19918;-62
2023/04/01 09:14:34;;;;;;;;;;;;;;;11.08;60.23;96658.88;4977700;28;19925;-63
2023/04/01 09:17:01;;;;;;;;;;;;;;;11.15;61.00;96654.72;4978444;28;19925;-62
2023/04/01 09:19:53;;;;;;;;;;;;;;;11.27;60.48;96662.38;4978092;28;19918;-62
2023/04/01 09:22:21;;;;;;;;;;;;;;;11.32;59.16;96662.75;4958131;28;20358;-62
2023/04/01 09:25:01;;;;;;;;;;;;;;;11.20;60.21;96661.31;4972700;28;20463;-62
2023/04/01 09:27:30;;;;;;;;;;;;;;;11.25;60.26;96654.66;4982425;28;19929;-62
2023/04/01 09:30:16;;;;;;;;;;;;;;;11.29;61.23;96663.06;4973797;28;19925;-61
2023/04/01 09:32:56;;;;;;;;;;;;;;;11.38;60.53;96651.66;4972896;28;20603;-62
2023/04/01 09:35:24;;;;;;;;;;;;;;;11.43;59.72;96649.44;4962405;28;19925;-63
2023/04/01 09:37:49;;;;;;;;;;;;;;;11.48;60.59;96656.84;4968370;28;19973;-62
2023/04/01 09:40:38;;;;;;;;;;;;;;;11.51;60.12;96665.25;4971810;28;19918;-62
2023/04/01 09:43:12;;;;;;;;;;;;;;;11.54;60.29;96667.59;4959655;28;19941;-62
2023/04/01 09:45:43;;;;;;;;;;;;;;;11.58;60.58;96658.44;4965571;28;20347;-62
2023/04/01 09:48:14;;;;;;;;;;;;;;;11.45;59.28;96662.41;4962147;28;19965;-63
2023/04/01 09:50:42;;;;;;;;;;;;;;;11.29;61.15;96679.63;4971238;28;19918;-62
2023/04/01 09:53:16;;;;;;;;;;;;;;;11.19;61.29;96667.53;4960623;28;19926;-62
2023/04/01 09:55:54;;;;;;;;;;;;;;;11.12;61.84;96675.16;4955262;28;20362;-61
2023/04/01 09:58:26;;;;;;;;;;;;;;;11.12;61.88;96678.59;4967010;28;19930;-62
2023/04/01 10:01:10;;;;;;;;;;;;;;;11.08;65.05;96679.03;4961227;28;19924;-63
2023/04/01 10:03:38;;;;;;;;;;;;;;;11.00;64.20;96699.91;4983617;28;19929;-62
2023/04/01 10:06:03;;;;;;;;;;;;;;;10.92;66.70;96687.53;4979249;28;20446;-63
2023/04/01 10:08:35;;;;;;;;;;;;;;;10.76;67.49;96687.31;4980364;28;19918;-63
2023/04/01 10:11:00;;;;;;;;;;;;;;;10.66;69.79;96689.94;4977084;28;20395;-64
2023/04/01 10:13:26;;;;;;;;;;;;;;;10.50;69.39;96679.25;4985040;28;19918;-62
2023/04/01 10:15:57;;;;;;;;;;;;;;;10.51;71.15;96686.16;4976437;28;19994;-62
2023/04/01 10:18:28;;;;;;;;;;;;;;;10.48;71.34;96675.94;4986054;28;19965;-62
2023/04/01 10:21:06;;;;;;;;;;;;;;;10.48;71.59;96682.00;4977978;28;19922;-62
2023/04/01 10:23:38;;;;;;;;;;;;;;;10.50;72.83;96672.22;4988054;28;19940;-62
2023/04/01 10:26:11;;;;;;;;;;;;;;;10.58;72.72;96674.94;4984077;28;19925;-65
2023/04/01 10:28:39;;;;;;;;;;;;;;;10.60;73.16;96673.00;4978082;28;19976;-65
2023/04/01 10:31:10;;;;;;;;;;;;;;;10.65;72.45;96678.66;4976318;28;19914;-64
2023/04/01 10:33:42;;;;;;;;;;;;;;;10.56;73.26;96669.00;4979390;28;19976;-64
2023/04/01 10:36:25;;;;;;;;;;;;;;;10.56;74.32;96674.25;4973495;28;19974;-64
2023/04/01 10:39:09;;;;;;;;;;;;;;;10.59;74.23;96668.72;4970261;28;19926;-65
2023/04/01 10:41:42;;;;;;;;;;;;;;;10.55;74.54;96669.16;4970572;28;20016;-64
2023/04/01 10:44:26;;;;;;;;;;;;;;;10.48;73.55;96663.66;4976221;28;19918;-65
2023/04/01 10:46:51;;;;;;;;;;;;;;;10.45;74.61;96658.69;4966358;28;19922;-64
2023/04/01 10:49:19;;;;;;;;;;;;;;;10.72;76.78;96660.53;4982028;28;19922;-65
2023/04/01 10:51:51;;;;;;;;;;;;;;;11.04;74.67;96672.41;4970236;28;19922;-64
2023/04/01 10:54:29;;;;;;;;;;;;;;;11.03;73.11;96662.91;4987446;28;20060;-64
2023/04/01 10:57:12;;;;;;;;;;;;;;;11.04;72.89;96668.00;4987425;28;19922;-64
2023/04/01 10:59:38;;;;;;;;;;;;;;;10.97;72.52;96668.72;4979467;28;20291;-64
2023/04/01 11:02:12;;;;;;;;;;;;;;;10.88;73.06;96665.19;4972523;28;19929;-65
2023/04/01 11:04:44;;;;;;;;;;;;;;;10.72;73.26;96668.41;4974869;28;19914;-64
2023/04/01 11:07:28;;;;;;;;;;;;;;;10.68;74.28;96657.38;4988010;28;19973;-64
2023/04/01 11:10:02;;;;;;;;;;;;;;;10.64;73.91;96666.50;4973172;28;19926;-61
2023/04/01 11:12:45;;;;;;;;;;;;;;;10.59;74.20;96663.47;4971672;28;19941;-63
2023/04/01 11:15:11;;;;;;;;;;;;;;;10.58;74.29;96664.47;4977090;28;19918;-64
2023/04/01 11:17:49;;;;;;;;;;;;;;;10.42;73.20;96664.22;4979663;28;20434;-62
2023/04/01 11:20:33;;;;;;;;;;;;;;;10.40;72.85;96666.16;4973241;28;19918;-63
2023/04/01 11:23:16;;;;;;;;;;;;;;;10.33;73.45;96670.31;4974383;28;19923;-62
2023/04/01 11:25:44;;;;;;;;;;;;;;;10.27;74.41;96670.88;4979495;28;19922;-63
2023/04/01 11:28:19;;;;;;;;;;;;;;;10.23;74.29;96673.75;4983672;28;19961;-64
2023/04/01 11:31:00;;;;;;;;;;;;;;;10.29;74.11;96680.25;4973989;28;19922;-62
2023/04/01 11:33:30;;;;;;;;;;;;;;;10.28;72.87;96680.38;4981643;28;19927;-62
2023/04/01 11:35:57;;;;;;;;;;;;;;;10.32;73.69;96673.88;4981269;28;19918;-62
2023/04/01 11:38:41;;;;;;;;;;;;;;;10.33;72.53;96670.31;4987312;28;19977;-61
2023/04/01 11:41:25;;;;;;;;;;;;;;;10.34;73.19;96680.66;4975529;28;20490;-62
2023/04/01 11:44:08;;;;;;;;;;;;;;;10.38;72.40;96678.56;4982633;28;20524;-61
2023/04/01 11:46:42;;;;;;;;;;;;;;;10.38;73.84;96662.84;4965007;28;19918;-63
2023/04/01 11:49:22;;;;;;;;;;;;;;;10.32;71.58;96673.88;4974571;28;19925;-62
2023/04/01 11:51:51;;;;;;;;;;;;;;;10.34;73.42;96687.69;4978771;28;19946;-63
2023/04/01 11:54:25;;;;;;;;;;;;;;;10.35;73.93;96681.47;4976851;28;19926;-60
2023/04/01 11:56:53;;;;;;;;;;;;;;;10.13;72.85;96675.56;4982730;28;19921;-61
2023/04/01 11:59:27;;;;;;;;;;;;;;;10.23;74.79;96686.03;4977686;28;19988;-61
2023/04/01 12:01:52;;;;;;;;;;;;;;;10.29;73.28;96682.03;4982073;28;19918;-60
2023/04/01 12:04:30;;;;;;;;;;;;;;;10.36;73.44;96686.59;4978428;28;19925;-60
2023/04/01 12:07:14;;;;;;;;;;;;;;;10.53;72.25;96677.19;4983247;28;20291;-61
2023/04/01 12:09:42;;;;;;;;;;;;;;;10.79;73.68;96685.22;4976439;28;19918;-63
2023/04/01 12:12:18;;;;;;;;;;;;;;;11.02;74.54;96682.25;4982058;28;20311;-62
2023/04/01 12:15:03;;;;;;;;;;;;;;;11.05;73.47;96692.47;4981314;28;19917;-62
2023/04/01 12:17:47;;;;;;;;;;;;;;;11.08;72.74;96687.75;4981987;28;19914;-62
2023/04/01 12:20:12;;;;;;;;;;;;;;;11.11;70.65;96697.97;4984979;28;19918;-63
2023/04/01 12:22:53;;;;;;;;;;;;;;;11.03;72.39;96687.34;4976222;28;19977;-62
2023/04/01 12:25:41;;;;;;;;;;;;;;;10.85;73.22;96687.28;4981053;28;19918;-63
2023/04/01 12:28:12;;;;;;;;;;;;;;;10.74;74.78;96684.03;4957960;28;19921;-62
2023/04/01 12:30:56;;;;;;;;;;;;;;;10.54;73.57;96699.78;4973433;28;19914;-61
2023/04/01 12:33:36;;;;;;;;;;;;;;;10.52;74.84;96686.00;4959194;28;19918;-61
2023/04/01 12:36:08;;;;;;;;;;;;;;;10.46;74.47;96686.56;4974904;28;19924;-61
2023/04/01 12:38:46;;;;;;;;;;;;;;;10.41;74.48;96686.16;4988324;28;19918;-62
2023/04/01 12:41:14;;;;;;;;;;;;;;;10.42;75.83;96703.53;4980859;28;19925;-61
2023/04/01 12:43:54;;;;;;;;;;;;;;;10.55;74.55;96683.09;4963751;28;19917;-62
2023/04/01 12:46:26;;;;;;;;;;;;;;;10.68;74.77;96688.84;4976838;28;19918;-62
2023/04/01 12:49:10;;;;;;;;;;;;;;;10.85;73.30;96681.22;4973674;28;19925;-62
2023/04/01 12:51:41;;;;;;;;;;;;;;;10.91;72.13;96691.13;4979259;28;19925;-62
2023/04/01 12:54:06;;;;;;;;;;;;;;;10.77;72.51;96686.31;4971887;28;20292;-62
2023/04/01 12:56:50;;;;;;;;;;;;;;;10.76;73.20;96682.06;4973554;28;19918;-62
2023/04/01 12:59:19;;;;;;;;;;;;;;;10.88;71.78;96691.41;4977410;28;19913;-61
2023/04/01 13:01:56;;;;;;;;;;;;;;;10.92;71.33;96696.22;4979303;28;19918;-62
2023/04/01 13:04:40;;;;;;;;;;;;;;;10.97;71.43;96677.41;4974207;28;20347;-61
2023/04/01 13:07:20;;;;;;;;;;;;;;;11.07;72.74;96693.13;4971930;28;20371;-63
2023/04/01 13:09:51;;;;;;;;;;;;;;;11.10;71.81;96693.66;4972925;28;20387;-62
2023/04/01 13:12:16;;;;;;;;;;;;;;;11.03;71.02;96695.22;4974995;28;19917;-62
2023/04/01 13:14:50;;;;;;;;;;;;;;;10.97;72.02;96695.78;4978434;28;19968;-62
2023/04/01 13:17:34;;;;;;;;;;;;;;;10.99;70.81;96700.91;4973214;28;19922;-61
2023/04/01 13:20:18;;;;;;;;;;;;;;;10.92;70.70;96708.53;4972791;28;19965;-62
2023/04/01 13:22:51;;;;;;;;;;;;;;;10.89;71.67;96698.31;4977122;28;19977;-62
2023/04/01 13:25:21;;;;;;;;;;;;;;;10.91;71.37;96701.63;4983853;28;19945;-62
2023/04/01 13:27:49;;;;;;;;;;;;;;;11.00;70.97;96698.13;4982846;28;20428;-62
2023/04/01 13:30:17;;;;;;;;;;;;;;;11.04;70.09;96712.59;4968184;28;20375;-62
2023/04/01 13:32:42;;;;;;;;;;;;;;;11.14;71.26;96707.31;4984788;28;20352;-61
2023/04/01 13:35:20;;;;;;;;;;;;;;;11.22;69.57;96709.22;4983299;28;20001;-61
2023/04/01 13:37:49;;;;;;;;;;;;;;;11.23;70.39;96703.00;4977959;28;19961;-63
2023/04/01 13:40:23;;;;;;;;;;;;;;;11.26;69.61;96700.09;4971407;28;19978;-64
2023/04/01 13:42:54;;;;;;;;;;;;;;;11.19;70.52;96706.91;4972382;28;19922;-62
2023/04/01 13:45:22;;;;;;;;;;;;;;;11.24;69.99;96700.22;4970450;28;19988;-63
2023/04/01 13:48:17;;;;;;;;;;;;;;;11.19;69.88;96705.09;4967018;28;19922;-62
2023/04/01 13:51:03;;;;;;;;;;;;;;;11.04;70.62;96706.53;4967090;28;19918;-63
2023/04/01 13:53:28;;;;;;;;;;;;;;;11.14;69.02;96705.50;4965984;28;19960;-62
2023/04/01 13:55:53;;;;;;;;;;;;;;;11.20;69.37;96712.00;4973909;28;19950;-62
2023/04/01 13:58:37;;;;;;;;;;;;;;;11.33;68.33;96712.47;4980699;28;19918;-63
2023/04/01 14:01:07;;;;;;;;;;;;;;;11.43;67.63;96703.75;4964694;28;19918;-63
2023/04/01 14:03:50;;;;;;;;;;;;;;;11.44;67.79;96711.44;4983430;28;19918;-63
2023/04/01 14:06:28;;;;;;;;;;;;;;;11.35;67.14;96709.69;4982512;28;19928;-62
2023/04/01 14:09:06;;;;;;;;;;;;;;;11.25;67.39;96714.16;4977170;28;19918;-63
2023/04/01 14:11:52;;;;;;;;;;;;;;;11.13;68.15;96711.75;4974526;28;19918;-63
2023/04/01 14:14:17;;;;;;;;;;;;;;;11.07;68.11;96722.81;4986643;28;19976;-64
2023/04/01 14:17:01;;;;;;;;;;;;;;;10.96;69.81;96720.38;4984102;28;19914;-63
2023/04/01 14:19:44;;;;;;;;;;;;;;;10.93;70.16;96721.47;4977019;28;19917;-64
2023/04/01 14:22:27;;;;;;;;;;;;;;;10.81;68.25;96711.31;4982649;28;19922;-62
2023/04/01 14:24:53;;;;;;;;;;;;;;;10.67;70.07;96726.53;4979007;28;20004;-63
2023/04/01 14:27:19;;;;;;;;;;;;;;;10.62;71.47;96728.75;4983800;28;20033;-63
2023/04/01 14:29:48;;;;;;;;;;;;;;;10.53;70.54;96727.00;4978246;28;19918;-63
2023/04/01 14:32:49;;;;;;;;;;;;;;;10.42;71.98;96732.38;4980642;28;19918;-62
2023/04/01 14:35:14;;;;;;;;;;;;;;;10.46;71.36;96731.13;4920257;29;20021;-62
2023/04/01 14:37:54;;;;;;;;;;;;;;;10.51;71.21;96726.28;4912012;29;20440;-64
2023/04/01 14:40:21;;;;;;;;;;;;;;;10.44;70.44;96731.25;4907198;29;19998;-64
2023/04/01 14:42:52;;;;;;;;;;;;;;;10.44;70.16;96733.06;4916456;29;19934;-62
2023/04/01 14:45:44;;;;;;;;;;;;;;;10.42;71.14;96737.59;4923519;29;19915;-64
2023/04/01 14:48:15;;;;;;;;;;;;;;;10.34;72.25;96742.72;4921696;29;20304;-63
2023/04/01 14:50:41;;;;;;;;;;;;;;;10.36;71.86;96733.78;4915488;29;20381;-64
2023/04/01 14:53:06;;;;;;;;;;;;;;;10.33;71.53;96739.28;4925005;29;19919;-64
2023/04/01 14:55:42;;;;;;;;;;;;;;;10.32;72.01;96740.22;4927328;29;19919;-63
2023/04/01 14:58:11;;;;;;;;;;;;;;;10.41;71.20;96741.19;4925383;29;20013;-63
2023/04/01 15:00:57;;;;;;;;;;;;;;;10.45;71.77;96742.56;4915430;29;20620;-63
2023/04/01 15:03:25;;;;;;;;;;;;;;;10.53;70.65;96745.34;4926715;29;19923;-64
2023/04/01 15:05:53;;;;;;;;;;;;;;;10.58;70.86;96743.09;4911332;29;19943;-62
2023/04/01 15:08:25;;;;;;;;;;;;;;;10.72;71.04;96741.84;4926066;28;19931;-63
2023/04/01 15:10:50;;;;;;;;;;;;;;;10.78;70.89;96748.31;4967661;28;19988;-63
2023/04/01 15:13:15;;;;;;;;;;;;;;;10.75;70.87;96749.44;4983352;28;20322;-63
2023/04/01 15:15:46;;;;;;;;;;;;;;;10.74;70.23;96747.78;4979870;28;19925;-62
2023/04/01 15:18:32;;;;;;;;;;;;;;;10.80;70.87;96751.63;4983271;28;20451;-64
2023/04/01 15:21:03;;;;;;;;;;;;;;;10.76;71.28;96752.88;4972336;28;20442;-62
2023/04/01 15:23:29;;;;;;;;;;;;;;;10.80;71.31;96754.22;4976287;28;19918;-63
2023/04/01 15:25:54;;;;;;;;;;;;;;;10.81;71.91;96763.78;4979912;28;19968;-61
2023/04/01 15:28:42;;;;;;;;;;;;;;;10.78;70.03;96746.53;4978374;28;19918;-63
2023/04/01 15:31:07;;;;;;;;;;;;;;;10.66;70.56;96751.09;4946906;28;20311;-62
2023/04/01 15:33:42;;;;;;;;;;;;;;;10.58;70.45;96763.25;4982392;28;20383;-62
2023/04/01 15:36:15;;;;;;;;;;;;;;;10.59;71.69;96765.72;4974564;28;19926;-62
2023/04/01 15:38:50;;;;;;;;;;;;;;;10.60;71.46;96762.16;4976107;28;19972;-62
2023/04/01 15:41:16;;;;;;;;;;;;;;;10.60;71.30;96771.81;4988647;28;19925;-62
2023/04/01 15:43:43;;;;;;;;;;;;;;;10.62;71.59;96770.69;4977587;28;20455;-63
2023/04/01 15:46:14;;;;;;;;;;;;;;;10.56;71.18;96773.88;4974487;28;19980;-63
2023/04/01 15:49:11;;;;;;;;;;;;;;;10.43;71.49;96768.13;4978781;28;19918;-63
2023/04/01 15:51:39;;;;;;;;;;;;;;;10.38;71.13;96773.75;4938085;28;19976;-63
2023/04/01 15:54:04;;;;;;;;;;;;;;;10.27;71.41;96775.69;4979748;28;20199;-64
2023/04/01 15:56:39;;;;;;;;;;;;;;;10.22;72.04;96771.66;4987882;28;19972;-64
2023/04/01 15:59:07;;;;;;;;;;;;;;;10.19;72.48;96790.28;4977462;28;19919;-63
2023/04/01 16:01:51;;;;;;;;;;;;;;;10.17;71.46;96773.84;4974524;28;20393;-64
2023/04/01 16:04:43;;;;;;;;;;;;;;;10.13;71.03;96780.34;4982024;28;20379;-63
2023/04/01 16:07:27;;;;;;;;;;;;;;;10.14;71.70;96783.78;4979204;28;19925;-63
2023/04/01 16:10:01;;;;;;;;;;;;;;;10.18;71.64;96779.94;4974374;28;19918;-63
2023/04/01 16:12:45;;;;;;;;;;;;;;;10.16;71.96;96787.13;4983092;28;19993;-63
2023/04/01 16:15:10;;;;;;;;;;;;;;;10.19;71.32;96790.28;4976221;28;20307;-64
2023/04/01 16:17:38;;;;;;;;;;;;;;;10.16;71.68;96793.19;4982681;28;19921;-63
2023/04/01 16:20:09;;;;;;;;;;;;;;;10.03;72.11;96790.00;4973973;28;19949;-62
2023/04/01 16:22:34;;;;;;;;;;;;;;;10.03;71.33;96795.22;4984180;28;20399;-62
2023/04/01 16:25:18;;;;;;;;;;;;;;;9.96;72.36;96800.19;4977799;28;19924;-63
2023/04/01 16:27:46;;;;;;;;;;;;;;;9.85;72.38;96791.63;4976279;28;19976;-62
2023/04/01 16:30:23;;;;;;;;;;;;;;;9.83;73.30;96796.16;4971366;28;19922;-62
2023/04/01 16:32:57;;;;;;;;;;;;;;;9.84;72.92;96800.41;4967829;28;19919;-60
2023/04/01 16:35:25;;;;;;;;;;;;;;;9.75;73.51;96808.13;4991530;28;19921;-62
2023/04/01 16:37:54;;;;;;;;;;;;;;;9.84;73.20;96800.41;4984353;28;19918;-62
2023/04/01 16:40:40;;;;;;;;;;;;;;;9.73;73.40;96810.03;4972875;28;20001;-62
2023/04/01 16:43:11;;;;;;;;;;;;;;;9.78;73.23;96814.06;4971187;28;19922;-63
2023/04/01 16:45:53;;;;;;;;;;;;;;;9.62;74.40;96812.78;4980358;28;19924;-63
2023/04/01 16:48:20;;;;;;;;;;;;;;;9.58;74.69;96811.38;4973737;28;19998;-62
2023/04/01 16:51:04;;;;;;;;;;;;;;;9.65;74.13;96820.38;4985712;28;19964;-63
2023/04/01 16:53:37;;;;;;;;;;;;;;;9.62;74.49;96823.25;4957427;28;19918;-62
2023/04/01 16:56:04;;;;;;;;;;;;;;;9.60;75.08;96829.56;4961474;28;19926;-61
2023/04/01 16:58:33;;;;;;;;;;;;;;;9.58;74.65;96821.84;4973229;28;19918;-65
2023/04/01 17:01:05;;;;;;;;;;;;;;;9.59;74.13;96833.16;4977536;28;19922;-66
2023/04/01 17:03:32;;;;;;;;;;;;;;;9.49;74.78;96825.25;4969925;28;19977;-65
2023/04/01 17:05:57;;;;;;;;;;;;;;;9.42;74.95;96831.97;4963446;28;20415;-65
2023/04/01 17:08:27;;;;;;;;;;;;;;;9.42;75.06;96826.75;4955205;28;19982;-65
2023/04/01 17:11:12;;;;;;;;;;;;;;;9.39;74.95;96834.84;4964576;28;19926;-66
2023/04/01 17:13:40;;;;;;;;;;;;;;;9.43;75.25;96833.66;4965507;28;20294;-66
2023/04/01 17:16:20;;;;;;;;;;;;;;;9.41;74.60;96843.41;4963382;28;19973;-66
2023/04/01 17:18:49;;;;;;;;;;;;;;;9.41;74.84;96841.63;4972917;28;19914;-65
2023/04/01 17:21:23;;;;;;;;;;;;;;;9.32;75.43;96844.19;4967047;28;19973;-65
2023/04/01 17:23:52;;;;;;;;;;;;;;;9.33;74.88;96844.09;4961165;28;19976;-66
2023/04/01 17:26:36;;;;;;;;;;;;;;;9.29;74.96;96847.91;4958428;28;19949;-66
2023/04/01 17:29:34;;;;;;;;;;;;;;;9.27;75.65;96855.88;4969282;28;21948;-65
2023/04/01 17:32:14;;;;;;;;;;;;;;;9.26;75.61;96859.47;4892088;29;19923;-66
2023/04/01 17:34:59;;;;;;;;;;;;;;;9.28;75.43;96857.53;4878754;29;19919;-65
2023/04/01 17:37:43;;;;;;;;;;;;;;;9.30;75.10;96864.44;4894119;29;19919;-65
2023/04/01 17:40:21;;;;;;;;;;;;;;;9.34;74.43;96866.66;4892730;29;20045;-66
2023/04/01 17:42:48;;;;;;;;;;;;;;;9.31;74.73;96871.31;4878999;29;19920;-65
2023/04/01 17:45:31;;;;;;;;;;;;;;;9.27;75.05;96881.22;4876708;29;19919;-65
2023/04/01 17:48:08;;;;;;;;;;;;;;;9.24;75.38;96886.72;4893552;29;20485;-65
2023/04/01 17:50:36;;;;;;;;;;;;;;;9.22;75.33;96886.84;4888358;29;19920;-65
2023/04/01 17:53:23;;;;;;;;;;;;;;;9.22;74.82;96888.59;4878043;29;19920;-65
2023/04/01 17:56:20;;;;;;;;;;;;;;;9.18;74.89;96890.66;4875935;29;19920;-66
2023/04/01 17:58:48;;;;;;;;;;;;;;;9.17;74.95;96891.63;4861790;29;19942;-65
2023/04/01 18:01:14;;;;;;;;;;;;;;;9.10;75.41;96895.72;4892548;29;19920;-64
2023/04/01 18:03:41;;;;;;;;;;;;;;;9.10;75.57;96890.47;4893656;29;19923;-64
2023/04/01 18:06:13;;;;;;;;;;;;;;;9.09;75.86;96909.75;4894178;29;20010;-65
2023/04/01 18:08:47;;;;;;;;;;;;;;;9.10;75.82;96903.56;4964952;28;19922;-64
2023/04/01 18:11:20;;;;;;;;;;;;;;;9.09;76.18;96915.00;4964656;28;19919;-65
2023/04/01 18:13:58;;;;;;;;;;;;;;;9.06;76.01;96904.78;4952211;28;19969;-65
2023/04/01 18:16:38;;;;;;;;;;;;;;;9.06;76.13;96915.25;4952412;28;19938;-65
2023/04/01 18:19:14;;;;;;;;;;;;;;;9.08;76.12;96915.91;4970825;28;20009;-64
2023/04/01 18:21:40;;;;;;;;;;;;;;;9.02;76.73;96914.66;4963820;28;19914;-64
2023/04/01 18:24:16;;;;;;;;;;;;;;;9.01;76.64;96917.38;4975650;28;20311;-65
2023/04/01 18:26:47;;;;;;;;;;;;;;;9.00;76.98;96916.56;4981654;28;19998;-64
2023/04/01 18:29:30;;;;;;;;;;;;;;;9.03;76.55;96932.00;4975818;28;20335;-64
2023/04/01 18:32:06;;;;;;;;;;;;;;;9.08;76.20;96923.78;4975309;28;19914;-65
2023/04/01 18:34:50;;;;;;;;;;;;;;;9.03;76.56;96921.53;4982666;28;19972;-64
2023/04/01 18:37:24;;;;;;;;;;;;;;;9.03;76.14;96926.78;4993258;28;19914;-65
2023/04/01 18:40:08;;;;;;;;;;;;;;;9.04;76.03;96920.56;4980034;28;19922;-65
2023/04/01 18:42:52;;;;;;;;;;;;;;;9.08;76.30;96934.22;4974078;28;19925;-65
2023/04/01 18:45:27;;;;;;;;;;;;;;;9.04;76.28;96938.06;4982912;28;19957;-65
2023/04/01 18:47:58;;;;;;;;;;;;;;;8.98;76.62;96939.41;4980285;28;19913;-64
2023/04/01 18:50:32;;;;;;;;;;;;;;;8.89;77.42;96928.88;4983244;28;20358;-65
2023/04/01 18:52:59;;;;;;;;;;;;;;;8.93;77.13;96935.50;4974942;28;19926;-64
2023/04/01 18:55:48;;;;;;;;;;;;;;;8.89;77.40;96931.50;4978727;28;19922;-65
2023/04/01 18:58:32;;;;;;;;;;;;;;;8.92;77.90;96933.84;4966626;28;19918;-64
2023/04/01 19:01:08;;;;;;;;;;;;;;;8.89;77.47;96944.56;4968354;28;20408;-65
2023/04/01 19:03:45;;;;;;;;;;;;;;;8.86;77.80;96945.63;4976339;28;20061;-65
2023/04/01 19:06:25;;;;;;;;;;;;;;;8.88;77.71;96953.34;4970380;28;19918;-65
2023/04/01 19:08:51;;;;;;;;;;;;;;;8.91;77.64;96963.56;4964540;28;19949;-65
2023/04/01 19:11:32;;;;;;;;;;;;;;;8.90;77.05;96956.66;4968110;28;19952;-65
2023/04/01 19:14:12;;;;;;;;;;;;;;;8.83;77.64;96961.56;4971712;28;19977;-65
2023/04/01 19:16:40;;;;;;;;;;;;;;;8.82;77.86;96956.47;4957208;28;20009;-65
2023/04/01 19:19:23;;;;;;;;;;;;;;;8.82;78.10;96964.31;4963397;28;20302;-65
2023/04/01 19:21:51;;;;;;;;;;;;;;;8.81;77.74;96971.34;4974087;28;20392;-65
2023/04/01 19:24:33;;;;;;;;;;;;;;;8.84;77.90;96973.69;4964554;28;19926;-65
2023/04/01 19:27:01;;;;;;;;;;;;;;;8.87;77.60;96972.59;4972920;28;19950;-65
2023/04/01 19:29:49;;;;;;;;;;;;;;;8.91;77.29;96974.88;4961159;28;20300;-65
2023/04/01 19:32:14;;;;;;;;;;;;;;;8.87;78.16;96973.44;4961330;28;19919;-65
2023/04/01 19:34:45;;;;;;;;;;;;;;;8.87;77.55;96972.59;4968031;28;19914;-65
2023/04/01 19:37:29;;;;;;;;;;;;;;;8.86;77.92;96971.78;4981004;28;20271;-65
2023/04/01 19:39:57;;;;;;;;;;;;;;;8.87;78.30;96977.84;4965615;28;19914;-65
2023/04/01 19:42:23;;;;;;;;;;;;;;;8.96;77.42;96983.16;4965034;28;19923;-65
2023/04/01 19:44:51;;;;;;;;;;;;;;;8.93;77.52;96977.34;4964664;28;19914;-65
2023/04/01 19:47:34;;;;;;;;;;;;;;;8.96;77.40;96979.72;4973019;28;20451;-65
2023/04/01 19:50:08;;;;;;;;;;;;;;;8.87;77.49;96977.84;4972072;28;19919;-65
2023/04/01 19:52:37;;;;;;;;;;;;;;;8.85;77.95;96977.16;4968778;28;19918;-65
2023/04/01 19:55:21;;;;;;;;;;;;;;;8.85;77.79;96977.16;4945886;28;19925;-65
2023/04/01 19:58:12;;;;;;;;;;;;;;;8.88;77.45;96982.09;4966932;28;19919;-65
2023/04/01 20:00:39;;;;;;;;;;;;;;;8.89;77.21;96978.56;4968833;28;19925;-65
2023/04/01 20:03:05;;;;;;;;;;;;;;;8.87;77.93;96983.06;4964502;28;19922;-65
2023/04/01 20:05:33;;;;;;;;;;;;;;;8.85;77.39;96985.00;4955225;28;19965;-64
2023/04/01 20:08:04;;;;;;;;;;;;;;;8.85;77.42;96995.44;4968020;28;19965;-64
2023/04/01 20:10:38;;;;;;;;;;;;;;;8.85;77.69;97003.28;4957361;28;20478;-64
2023/04/01 20:13:13;;;;;;;;;;;;;;;8.86;77.49;96999.72;4967362;28;20128;-64
2023/04/01 20:15:43;;;;;;;;;;;;;;;8.87;77.33;97006.59;4963426;28;19918;-64
2023/04/01 20:18:14;;;;;;;;;;;;;;;8.84;77.45;97001.63;4970952;28;20006;-64
2023/04/01 20:20:39;;;;;;;;;;;;;;;8.83;77.33;97003.41;4964450;28;19914;-64
2023/04/01 20:23:11;;;;;;;;;;;;;;;8.92;76.50;97005.28;4966254;28;20387;-65
2023/04/01 20:25:39;;;;;;;;;;;;;;;8.94;76.37;97007.75;4969471;28;19926;-64
2023/04/01 20:28:10;;;;;;;;;;;;;;;8.91;76.91;97013.25;4963161;28;19918;-64
2023/04/01 20:30:45;;;;;;;;;;;;;;;8.92;76.46;97012.31;4960423;28;19922;-64
2023/04/01 20:33:22;;;;;;;;;;;;;;;8.95;76.55;97012.06;4957757;28;20009;-64
2023/04/01 20:36:06;;;;;;;;;;;;;;;8.89;76.56;97007.31;4965285;28;20052;-64
2023/04/01 20:38:50;;;;;;;;;;;;;;;8.91;76.85;97015.84;4962917;28;20500;-64
2023/04/01 20:41:34;;;;;;;;;;;;;;;8.80;77.70;97014.94;4969421;28;20524;-64
2023/04/01 20:44:18;;;;;;;;;;;;;;;8.78;77.78;97022.09;4980724;28;19993;-65
2023/04/01 20:46:45;;;;;;;;;;;;;;;8.78;77.69;97024.69;4965048;28;19953;-64
2023/04/01 20:49:15;;;;;;;;;;;;;;;8.72;78.12;97022.56;4984723;28;20372;-65
2023/04/01 20:51:43;;;;;;;;;;;;;;;8.69;78.88;97022.81;4962601;28;19919;-64
2023/04/01 20:54:15;;;;;;;;;;;;;;;8.68;78.47;97031.63;4965427;28;19918;-65
2023/04/01 20:56:59;;;;;;;;;;;;;;;8.63;78.81;97023.28;4949934;28;20296;-64
2023/04/01 20:59:27;;;;;;;;;;;;;;;8.65;79.28;97037.06;4965992;28;19981;-64
2023/04/01 21:02:12;;;;;;;;;;;;;;;8.63;78.90;97031.13;4967797;28;19922;-65
2023/04/01 21:04:53;;;;;;;;;;;;;;;8.56;79.85;97033.41;4962183;28;20368;-64
2023/04/01 21:07:30;;;;;;;;;;;;;;;8.54;79.64;97031.88;4954381;28;19922;-63
2023/04/01 21:09:55;;;;;;;;;;;;;;;8.53;80.07;97044.13;4969770;28;19926;-65
2023/04/01 21:12:23;;;;;;;;;;;;;;;8.51;80.96;97045.19;4970907;28;19933;-64
